createdAt,value
2017-11-26T05:00:40.167Z,1010.44
2017-11-26T05:01:05.642Z,1010.46
2017-11-26T05:01:31.151Z,1010.45
2017-11-26T05:01:56.682Z,1010.41
2017-11-26T05:02:22.139Z,1010.42
2017-11-26T05:02:47.640Z,1010.49
2017-11-26T05:03:13.133Z,1010.52
2017-11-26T05:03:38.662Z,1010.43
2017-11-26T05:04:04.150Z,1010.46
2017-11-26T05:04:29.603Z,1010.46
2017-11-26T05:04:55.090Z,1010.49
2017-11-26T05:05:20.588Z,1010.56
2017-11-26T05:05:46.065Z,1010.52
2017-11-26T05:06:11.557Z,1010.53
2017-11-26T05:06:37.040Z,1010.46
2017-11-26T05:07:02.520Z,1010.45
2017-11-26T05:07:28.005Z,1010.47
2017-11-26T05:07:53.446Z,1010.45
2017-11-26T05:08:18.918Z,1010.39
2017-11-26T05:08:44.430Z,1010.42
2017-11-26T05:09:09.905Z,1010.42
2017-11-26T05:09:35.376Z,1010.41
2017-11-26T05:10:00.896Z,1010.49
2017-11-26T05:10:26.351Z,1010.48
2017-11-26T05:10:51.849Z,1010.47
2017-11-26T05:11:17.342Z,1010.44
2017-11-26T05:11:42.821Z,1010.45
2017-11-26T05:12:08.298Z,1010.46
2017-11-26T05:12:33.839Z,1010.47
2017-11-26T05:12:59.299Z,1010.41
2017-11-26T05:13:24.817Z,1010.47
2017-11-26T05:13:50.294Z,1010.41
2017-11-26T05:14:15.798Z,1010.41
2017-11-26T05:14:41.283Z,1010.4
2017-11-26T05:15:06.770Z,1010.41
2017-11-26T05:15:32.244Z,1010.36
2017-11-26T05:15:57.750Z,1010.37
2017-11-26T05:16:23.272Z,1010.39
2017-11-26T05:16:48.768Z,1010.36
2017-11-26T05:17:14.268Z,1010.35
2017-11-26T05:17:39.762Z,1010.4
2017-11-26T05:18:05.266Z,1010.44
2017-11-26T05:18:30.786Z,1010.39
2017-11-26T05:18:56.266Z,1010.45
2017-11-26T05:19:21.776Z,1010.4
2017-11-26T05:19:47.273Z,1010.43
2017-11-26T05:20:12.768Z,1010.37
2017-11-26T05:20:38.252Z,1010.35
2017-11-26T05:21:03.719Z,1010.41
2017-11-26T05:21:29.298Z,1010.4
2017-11-26T05:21:54.824Z,1010.41
2017-11-26T05:22:20.333Z,1010.46
2017-11-26T05:22:45.805Z,1010.44
2017-11-26T05:23:11.297Z,1010.46
2017-11-26T05:23:36.756Z,1010.42
2017-11-26T05:24:02.261Z,1010.46
2017-11-26T05:24:27.716Z,1010.46
2017-11-26T05:24:53.209Z,1010.44
2017-11-26T05:25:18.730Z,1010.44
2017-11-26T05:25:44.197Z,1010.43
2017-11-26T05:26:09.664Z,1010.46
2017-11-26T05:26:35.188Z,1010.32
2017-11-26T05:27:00.667Z,1010.43
2017-11-26T05:27:26.225Z,1010.4
2017-11-26T05:27:51.712Z,1010.47
2017-11-26T05:28:17.193Z,1010.36
2017-11-26T05:28:42.699Z,1010.39
2017-11-26T05:29:08.227Z,1010.43
2017-11-26T05:29:33.744Z,1010.48
2017-11-26T05:29:59.256Z,1010.47
2017-11-26T05:30:24.709Z,1010.42
2017-11-26T05:30:50.219Z,1010.42
2017-11-26T05:31:15.765Z,1010.41
2017-11-26T05:31:41.208Z,1010.4
2017-11-26T05:32:06.673Z,1010.44
2017-11-26T05:32:32.161Z,1010.42
2017-11-26T05:32:57.642Z,1010.47
2017-11-26T05:33:23.137Z,1010.42
2017-11-26T05:33:48.596Z,1010.41
2017-11-26T05:34:14.087Z,1010.44
2017-11-26T05:34:39.561Z,1010.47
2017-11-26T05:35:05.049Z,1010.41
2017-11-26T05:35:30.547Z,1010.46
2017-11-26T05:35:56.056Z,1010.46
2017-11-26T05:36:21.571Z,1010.47
2017-11-26T05:36:47.011Z,1010.4
2017-11-26T05:37:12.498Z,1010.46
2017-11-26T05:37:37.996Z,1010.46
2017-11-26T05:38:03.457Z,1010.53
2017-11-26T05:38:28.973Z,1010.49
2017-11-26T05:38:54.471Z,1010.49
2017-11-26T05:39:19.965Z,1010.49
2017-11-26T05:39:45.497Z,1010.49
2017-11-26T05:40:10.958Z,1010.43
2017-11-26T05:40:36.479Z,1010.42
2017-11-26T05:41:01.957Z,1010.5
2017-11-26T05:41:27.467Z,1010.5
2017-11-26T05:41:52.946Z,1010.45
2017-11-26T05:42:18.435Z,1010.37
2017-11-26T05:42:43.944Z,1010.41
2017-11-26T05:43:09.447Z,1010.42
2017-11-26T05:43:34.927Z,1010.46
2017-11-26T05:44:00.393Z,1010.44
2017-11-26T05:44:25.879Z,1010.39
2017-11-26T05:44:51.371Z,1010.43
2017-11-26T05:45:16.842Z,1010.46
2017-11-26T05:45:42.323Z,1010.41
2017-11-26T05:46:07.831Z,1010.46
2017-11-26T05:46:33.322Z,1010.44
2017-11-26T05:46:58.822Z,1010.43
2017-11-26T05:47:24.317Z,1010.4
2017-11-26T05:47:49.784Z,1010.41
2017-11-26T05:48:15.229Z,1010.46
2017-11-26T05:48:40.761Z,1010.42
2017-11-26T05:49:06.317Z,1010.41
2017-11-26T05:49:31.805Z,1010.41
2017-11-26T05:49:57.274Z,1010.4
2017-11-26T05:50:22.783Z,1010.38
2017-11-26T05:50:48.287Z,1010.39
2017-11-26T05:51:13.814Z,1010.38
2017-11-26T05:51:39.300Z,1010.42
2017-11-26T05:52:04.797Z,1010.47
2017-11-26T05:52:30.299Z,1010.41
2017-11-26T05:52:55.797Z,1010.45
2017-11-26T05:53:21.266Z,1010.47
2017-11-26T05:53:46.759Z,1010.46
2017-11-26T05:54:12.213Z,1010.44
2017-11-26T05:54:37.706Z,1010.48
2017-11-26T05:55:03.224Z,1010.49
2017-11-26T05:55:28.711Z,1010.44
2017-11-26T05:55:54.198Z,1010.49
2017-11-26T05:56:19.687Z,1010.42
2017-11-26T05:56:45.200Z,1010.51
2017-11-26T05:57:10.753Z,1010.49
2017-11-26T05:57:36.219Z,1010.51
2017-11-26T05:58:01.723Z,1010.54
2017-11-26T05:58:27.208Z,1010.48
2017-11-26T05:58:52.721Z,1010.56
2017-11-26T05:59:18.218Z,1010.5
2017-11-26T05:59:43.756Z,1010.55
2017-11-26T06:00:09.240Z,1010.52
2017-11-26T06:00:34.726Z,1010.57
2017-11-26T06:01:00.217Z,1010.55
2017-11-26T06:01:25.731Z,1010.59
2017-11-26T06:01:51.187Z,1010.53
2017-11-26T06:02:16.724Z,1010.55
2017-11-26T06:02:42.192Z,1010.53
2017-11-26T06:03:07.712Z,1010.56
2017-11-26T06:03:33.212Z,1010.64
2017-11-26T06:03:58.686Z,1010.62
2017-11-26T06:04:24.184Z,1010.52
2017-11-26T06:04:49.657Z,1010.57
2017-11-26T06:05:15.109Z,1010.55
2017-11-26T06:05:40.587Z,1010.57
2017-11-26T06:06:06.093Z,1010.54
2017-11-26T06:06:31.644Z,1010.58
2017-11-26T06:06:57.116Z,1010.5
2017-11-26T06:07:22.641Z,1010.56
2017-11-26T06:07:48.111Z,1010.6
2017-11-26T06:08:13.609Z,1010.52
2017-11-26T06:08:39.108Z,1010.55
2017-11-26T06:09:04.611Z,1010.57
2017-11-26T06:09:30.107Z,1010.57
2017-11-26T06:09:55.643Z,1010.54
2017-11-26T06:10:21.095Z,1010.59
2017-11-26T06:10:46.600Z,1010.6
2017-11-26T06:11:12.089Z,1010.59
2017-11-26T06:11:37.593Z,1010.61
2017-11-26T06:12:03.099Z,1010.63
2017-11-26T06:12:28.572Z,1010.65
2017-11-26T06:12:54.074Z,1010.65
2017-11-26T06:13:19.585Z,1010.64
2017-11-26T06:13:45.069Z,1010.64
2017-11-26T06:14:10.619Z,1010.59
2017-11-26T06:14:36.090Z,1010.66
2017-11-26T06:15:01.567Z,1010.64
2017-11-26T06:15:27.087Z,1010.7
2017-11-26T06:15:52.578Z,1010.7
2017-11-26T06:16:18.066Z,1010.68
2017-11-26T06:16:43.548Z,1010.69
2017-11-26T06:17:09.013Z,1010.66
2017-11-26T06:17:34.528Z,1010.7
2017-11-26T06:17:59.988Z,1010.67
2017-11-26T06:18:25.436Z,1010.72
2017-11-26T06:18:50.938Z,1010.7
2017-11-26T06:19:16.431Z,1010.7
2017-11-26T06:19:41.942Z,1010.73
2017-11-26T06:20:07.471Z,1010.69
2017-11-26T06:20:32.934Z,1010.7
2017-11-26T06:20:58.426Z,1010.74
2017-11-26T06:21:23.922Z,1010.85
2017-11-26T06:21:49.405Z,1010.71
2017-11-26T06:22:14.932Z,1010.77
2017-11-26T06:22:40.428Z,1010.72
2017-11-26T06:23:05.889Z,1010.76
2017-11-26T06:23:31.395Z,1010.75
2017-11-26T06:23:56.837Z,1010.75
2017-11-26T06:24:22.331Z,1010.76
2017-11-26T06:24:47.877Z,1010.75
2017-11-26T06:25:13.347Z,1010.82
2017-11-26T06:25:38.819Z,1010.71
2017-11-26T06:26:04.301Z,1010.8
2017-11-26T06:26:29.787Z,1010.77
2017-11-26T06:26:55.321Z,1010.82
2017-11-26T06:27:20.826Z,1010.74
2017-11-26T06:27:46.310Z,1010.74
2017-11-26T06:28:11.803Z,1010.74
2017-11-26T06:28:37.273Z,1010.71
2017-11-26T06:29:02.764Z,1010.74
2017-11-26T06:29:28.222Z,1010.77
2017-11-26T06:29:53.726Z,1010.8
2017-11-26T06:30:19.234Z,1010.83
2017-11-26T06:30:44.767Z,1010.8
2017-11-26T06:31:10.273Z,1010.79
2017-11-26T06:31:35.924Z,1010.74
2017-11-26T06:32:01.459Z,1010.79
2017-11-26T06:32:26.940Z,1010.76
2017-11-26T06:32:52.436Z,1010.82
2017-11-26T06:33:17.921Z,1010.8
2017-11-26T06:33:43.429Z,1010.83
2017-11-26T06:34:08.909Z,1010.81
2017-11-26T06:34:34.435Z,1010.84
2017-11-26T06:34:59.948Z,1010.83
2017-11-26T06:35:25.436Z,1010.81
2017-11-26T06:35:50.947Z,1010.77
2017-11-26T06:36:16.450Z,1010.79
2017-11-26T06:36:41.909Z,1010.82
2017-11-26T06:37:07.380Z,1010.78
2017-11-26T06:37:32.865Z,1010.77
2017-11-26T06:37:58.393Z,1010.78
2017-11-26T06:38:23.933Z,1010.82
2017-11-26T06:38:49.442Z,1010.79
2017-11-26T06:39:14.956Z,1010.82
2017-11-26T06:39:40.430Z,1010.8
2017-11-26T06:40:05.923Z,1010.81
2017-11-26T06:40:31.442Z,1010.76
2017-11-26T06:40:56.899Z,1010.77
2017-11-26T06:41:22.448Z,1010.8
2017-11-26T06:41:47.924Z,1010.81
2017-11-26T06:42:13.392Z,1010.79
2017-11-26T06:42:38.888Z,1010.82
2017-11-26T06:43:04.363Z,1010.81
2017-11-26T06:43:29.858Z,1010.82
2017-11-26T06:43:55.376Z,1010.81
2017-11-26T06:44:20.866Z,1010.83
2017-11-26T06:44:46.379Z,1010.84
2017-11-26T06:45:11.890Z,1010.84
2017-11-26T06:45:37.350Z,1010.81
2017-11-26T06:46:02.814Z,1010.81
2017-11-26T06:46:28.299Z,1010.8
2017-11-26T06:46:53.761Z,1010.85
2017-11-26T06:47:19.253Z,1010.86
2017-11-26T06:47:44.737Z,1010.87
2017-11-26T06:48:10.255Z,1010.85
2017-11-26T06:48:35.692Z,1010.88
2017-11-26T06:49:01.156Z,1010.86
2017-11-26T06:49:26.651Z,1010.9
2017-11-26T06:49:52.173Z,1010.88
2017-11-26T06:50:17.682Z,1010.86
2017-11-26T06:50:43.145Z,1010.88
2017-11-26T06:51:08.625Z,1010.92
2017-11-26T06:51:34.122Z,1010.93
2017-11-26T06:51:59.631Z,1010.96
2017-11-26T06:52:25.124Z,1010.98
2017-11-26T06:52:50.629Z,1011
2017-11-26T06:53:16.097Z,1010.94
2017-11-26T06:53:41.562Z,1010.97
2017-11-26T06:54:07.127Z,1010.96
2017-11-26T06:54:32.595Z,1010.95
2017-11-26T06:54:58.112Z,1010.95
2017-11-26T06:55:23.598Z,1011
2017-11-26T06:55:49.096Z,1010.93
2017-11-26T06:56:14.590Z,1010.96
2017-11-26T06:56:40.110Z,1011.02
2017-11-26T06:57:05.605Z,1010.99
2017-11-26T06:57:31.088Z,1010.98
2017-11-26T06:57:56.564Z,1010.93
2017-11-26T06:58:22.073Z,1010.96
2017-11-26T06:58:47.564Z,1010.93
2017-11-26T06:59:13.028Z,1010.96
2017-11-26T06:59:38.516Z,1010.98
2017-11-26T07:00:03.995Z,1010.92
2017-11-26T07:00:29.476Z,1010.92
2017-11-26T07:00:54.988Z,1010.91
2017-11-26T07:01:20.450Z,1010.96
2017-11-26T07:01:45.926Z,1010.99
2017-11-26T07:02:11.379Z,1010.94
2017-11-26T07:02:36.851Z,1010.94
2017-11-26T07:03:02.366Z,1010.95
2017-11-26T07:03:27.837Z,1010.98
2017-11-26T07:03:53.329Z,1011.01
2017-11-26T07:04:18.826Z,1011.05
2017-11-26T07:04:44.335Z,1011.01
2017-11-26T07:05:09.794Z,1011.06
2017-11-26T07:05:35.391Z,1011.06
2017-11-26T07:06:00.807Z,1011.08
2017-11-26T07:06:26.307Z,1011.12
2017-11-26T07:06:51.843Z,1011.11
2017-11-26T07:07:17.341Z,1011.12
2017-11-26T07:07:42.835Z,1011.07
2017-11-26T07:08:08.318Z,1011.1
2017-11-26T07:08:33.805Z,1011.11
2017-11-26T07:08:59.270Z,1011.13
2017-11-26T07:09:24.733Z,1011.11
2017-11-26T07:09:50.232Z,1011.18
2017-11-26T07:10:15.725Z,1011.16
2017-11-26T07:10:41.178Z,1011.09
2017-11-26T07:11:06.710Z,1011.18
2017-11-26T07:11:32.201Z,1011.13
2017-11-26T07:11:57.685Z,1011.06
2017-11-26T07:12:23.140Z,1011.16
2017-11-26T07:12:48.629Z,1011.1
2017-11-26T07:13:14.098Z,1011.11
2017-11-26T07:13:39.587Z,1011.06
2017-11-26T07:14:05.069Z,1011.17
2017-11-26T07:14:30.574Z,1011.14
2017-11-26T07:14:56.048Z,1011.17
2017-11-26T07:15:21.540Z,1011.1
2017-11-26T07:15:47.094Z,1011.14
2017-11-26T07:16:12.614Z,1011.12
2017-11-26T07:16:38.082Z,1011.18
2017-11-26T07:17:03.551Z,1011.13
2017-11-26T07:17:29.096Z,1011.15
2017-11-26T07:17:54.643Z,1011.09
2017-11-26T07:18:20.079Z,1011.17
2017-11-26T07:18:45.565Z,1011.23
2017-11-26T07:19:11.024Z,1011.23
2017-11-26T07:19:36.472Z,1011.15
2017-11-26T07:20:01.967Z,1011.18
2017-11-26T07:20:27.481Z,1011.15
2017-11-26T07:20:52.979Z,1011.24
2017-11-26T07:21:18.479Z,1011.18
2017-11-26T07:21:43.997Z,1011.23
2017-11-26T07:22:09.430Z,1011.19
2017-11-26T07:22:34.905Z,1011.21
2017-11-26T07:23:00.387Z,1011.2
2017-11-26T07:23:25.870Z,1011.24
2017-11-26T07:23:51.337Z,1011.17
2017-11-26T07:24:16.795Z,1011.19
2017-11-26T07:24:42.259Z,1011.22
2017-11-26T07:25:07.751Z,1011.24
2017-11-26T07:25:33.253Z,1011.24
2017-11-26T07:25:58.772Z,1011.29
2017-11-26T07:26:24.241Z,1011.28
2017-11-26T07:26:49.680Z,1011.31
2017-11-26T07:27:15.210Z,1011.28
2017-11-26T07:27:40.710Z,1011.29
2017-11-26T07:28:06.206Z,1011.31
2017-11-26T07:28:31.728Z,1011.33
2017-11-26T07:28:57.176Z,1011.24
2017-11-26T07:29:22.683Z,1011.29
2017-11-26T07:29:48.160Z,1011.3
2017-11-26T07:30:13.657Z,1011.25
2017-11-26T07:30:39.113Z,1011.29
2017-11-26T07:31:04.602Z,1011.34
2017-11-26T07:31:30.088Z,1011.33
2017-11-26T07:31:55.541Z,1011.23
2017-11-26T07:32:21.076Z,1011.27
2017-11-26T07:32:46.561Z,1011.28
2017-11-26T07:33:12.063Z,1011.35
2017-11-26T07:33:37.549Z,1011.3
2017-11-26T07:34:03.061Z,1011.25
2017-11-26T07:34:28.529Z,1011.32
2017-11-26T07:34:54.019Z,1011.31
2017-11-26T07:35:19.460Z,1011.23
2017-11-26T07:35:44.943Z,1011.26
2017-11-26T07:36:10.414Z,1011.27
2017-11-26T07:36:35.850Z,1011.24
2017-11-26T07:37:01.340Z,1011.28
2017-11-26T07:37:26.925Z,1011.23
2017-11-26T07:37:52.391Z,1011.29
2017-11-26T07:38:17.780Z,1011.26
2017-11-26T07:38:43.295Z,1011.37
2017-11-26T07:39:08.793Z,1011.32
2017-11-26T07:39:34.212Z,1011.29
2017-11-26T07:39:59.695Z,1011.25
2017-11-26T07:40:25.154Z,1011.32
2017-11-26T07:40:50.643Z,1011.3
2017-11-26T07:41:16.094Z,1011.33
2017-11-26T07:41:41.569Z,1011.33
2017-11-26T07:42:07.056Z,1011.41
2017-11-26T07:42:32.719Z,1011.29
2017-11-26T07:42:58.198Z,1011.35
2017-11-26T07:43:23.680Z,1011.38
2017-11-26T07:43:49.215Z,1011.4
2017-11-26T07:44:14.700Z,1011.26
2017-11-26T07:44:40.177Z,1011.34
2017-11-26T07:45:05.739Z,1011.36
2017-11-26T07:45:31.154Z,1011.41
2017-11-26T07:45:56.614Z,1011.43
2017-11-26T07:46:22.096Z,1011.39
2017-11-26T07:46:47.606Z,1011.34
2017-11-26T07:47:13.099Z,1011.41
2017-11-26T07:47:38.591Z,1011.41
2017-11-26T07:48:04.101Z,1011.41
2017-11-26T07:48:29.559Z,1011.41
2017-11-26T07:48:55.024Z,1011.33
2017-11-26T07:49:20.533Z,1011.37
2017-11-26T07:49:46.076Z,1011.39
2017-11-26T07:50:11.509Z,1011.34
2017-11-26T07:50:36.968Z,1011.46
2017-11-26T07:51:02.478Z,1011.3
2017-11-26T07:51:27.903Z,1011.4
2017-11-26T07:51:53.360Z,1011.42
2017-11-26T07:52:18.822Z,1011.41
2017-11-26T07:52:44.312Z,1011.44
2017-11-26T07:53:09.783Z,1011.38
2017-11-26T07:53:35.323Z,1011.38
2017-11-26T07:54:00.812Z,1011.37
2017-11-26T07:54:26.255Z,1011.45
2017-11-26T07:54:51.765Z,1011.36
2017-11-26T07:55:17.210Z,1011.46
2017-11-26T07:55:42.694Z,1011.45
2017-11-26T07:56:08.171Z,1011.47
2017-11-26T07:56:33.658Z,1011.47
2017-11-26T07:56:59.140Z,1011.42
2017-11-26T07:57:24.600Z,1011.5
2017-11-26T07:57:50.097Z,1011.48
2017-11-26T07:58:15.568Z,1011.47
2017-11-26T07:58:41.086Z,1011.49
2017-11-26T07:59:06.650Z,1011.5
2017-11-26T07:59:32.101Z,1011.48
2017-11-26T07:59:57.547Z,1011.54
2017-11-26T08:00:23.056Z,1011.46
2017-11-26T08:00:48.577Z,1011.49
2017-11-26T08:01:14.052Z,1011.49
2017-11-26T08:01:39.504Z,1011.45
2017-11-26T08:02:05.006Z,1011.5
2017-11-26T08:02:30.471Z,1011.45
2017-11-26T08:02:56.015Z,1011.5
2017-11-26T08:03:21.461Z,1011.5
2017-11-26T08:03:46.943Z,1011.48
2017-11-26T08:04:12.478Z,1011.49
2017-11-26T08:04:37.928Z,1011.54
2017-11-26T08:05:03.454Z,1011.49
2017-11-26T08:05:28.873Z,1011.56
2017-11-26T08:05:54.352Z,1011.46
2017-11-26T08:06:19.856Z,1011.5
2017-11-26T08:06:45.334Z,1011.53
2017-11-26T08:07:10.810Z,1011.47
2017-11-26T08:07:36.283Z,1011.51
2017-11-26T08:08:01.817Z,1011.53
2017-11-26T08:08:27.308Z,1011.55
2017-11-26T08:08:52.768Z,1011.54
2017-11-26T08:09:18.278Z,1011.59
2017-11-26T08:09:43.760Z,1011.61
2017-11-26T08:10:09.210Z,1011.56
2017-11-26T08:10:34.705Z,1011.5
2017-11-26T08:11:00.219Z,1011.52
2017-11-26T08:11:25.693Z,1011.53
2017-11-26T08:11:51.223Z,1011.53
2017-11-26T08:12:16.695Z,1011.55
2017-11-26T08:12:42.214Z,1011.53
2017-11-26T08:13:07.656Z,1011.54
2017-11-26T08:13:33.150Z,1011.51
2017-11-26T08:13:58.615Z,1011.5
2017-11-26T08:14:24.114Z,1011.62
2017-11-26T08:14:49.610Z,1011.53
2017-11-26T08:15:15.105Z,1011.6
2017-11-26T08:15:40.591Z,1011.63
2017-11-26T08:16:06.069Z,1011.56
2017-11-26T08:16:31.564Z,1011.65
2017-11-26T08:16:57.098Z,1011.63
2017-11-26T08:17:22.608Z,1011.69
2017-11-26T08:17:48.067Z,1011.64
2017-11-26T08:18:13.553Z,1011.68
2017-11-26T08:18:39.054Z,1011.67
2017-11-26T08:19:04.564Z,1011.69
2017-11-26T08:19:30.096Z,1011.69
2017-11-26T08:19:55.632Z,1011.63
2017-11-26T08:20:21.099Z,1011.67
2017-11-26T08:20:46.615Z,1011.7
2017-11-26T08:21:12.058Z,1011.67
2017-11-26T08:21:37.542Z,1011.7
2017-11-26T08:22:03.014Z,1011.7
2017-11-26T08:22:28.490Z,1011.69
2017-11-26T08:22:54.019Z,1011.76
2017-11-26T08:23:19.462Z,1011.76
2017-11-26T08:23:44.963Z,1011.67
2017-11-26T08:24:10.417Z,1011.67
2017-11-26T08:24:35.903Z,1011.67
2017-11-26T08:25:01.424Z,1011.64
2017-11-26T08:25:26.895Z,1011.65
2017-11-26T08:25:52.369Z,1011.67
2017-11-26T08:26:17.823Z,1011.67
2017-11-26T08:26:43.319Z,1011.68
2017-11-26T08:27:08.811Z,1011.62
2017-11-26T08:27:34.352Z,1011.63
2017-11-26T08:27:59.832Z,1011.7
2017-11-26T08:28:25.292Z,1011.64
2017-11-26T08:28:50.777Z,1011.66
2017-11-26T08:29:16.235Z,1011.67
2017-11-26T08:29:41.774Z,1011.64
2017-11-26T08:30:07.191Z,1011.66
2017-11-26T08:30:32.686Z,1011.67
2017-11-26T08:30:58.154Z,1011.63
2017-11-26T08:31:23.664Z,1011.64
2017-11-26T08:31:49.128Z,1011.57
2017-11-26T08:32:14.673Z,1011.64
2017-11-26T08:32:40.163Z,1011.58
2017-11-26T08:33:05.625Z,1011.61
2017-11-26T08:33:31.151Z,1011.66
2017-11-26T08:33:56.655Z,1011.57
2017-11-26T08:34:22.124Z,1011.58
2017-11-26T08:34:47.584Z,1011.51
2017-11-26T08:35:13.261Z,1011.58
2017-11-26T08:35:38.649Z,1011.58
2017-11-26T08:36:04.100Z,1011.51
2017-11-26T08:36:29.630Z,1011.55
2017-11-26T08:36:55.141Z,1011.59
2017-11-26T08:37:20.606Z,1011.52
2017-11-26T08:37:46.081Z,1011.5
2017-11-26T08:38:11.574Z,1011.52
2017-11-26T08:38:37.125Z,1011.55
2017-11-26T08:39:02.636Z,1011.56
2017-11-26T08:39:28.129Z,1011.57
2017-11-26T08:39:53.586Z,1011.55
2017-11-26T08:40:19.085Z,1011.6
2017-11-26T08:40:44.574Z,1011.57
2017-11-26T08:41:10.072Z,1011.6
2017-11-26T08:41:35.554Z,1011.6
2017-11-26T08:42:01.007Z,1011.6
2017-11-26T08:42:26.482Z,1011.6
2017-11-26T08:42:51.956Z,1011.61
2017-11-26T08:43:17.424Z,1011.65
2017-11-26T08:43:42.903Z,1011.65
2017-11-26T08:44:08.384Z,1011.64
2017-11-26T08:44:33.933Z,1011.68
2017-11-26T08:44:59.444Z,1011.71
2017-11-26T08:45:24.941Z,1011.67
2017-11-26T08:45:50.449Z,1011.7
2017-11-26T08:46:15.896Z,1011.71
2017-11-26T08:46:41.393Z,1011.64
2017-11-26T08:47:06.869Z,1011.65
2017-11-26T08:47:32.333Z,1011.65
2017-11-26T08:47:57.814Z,1011.61
2017-11-26T08:48:23.350Z,1011.62
2017-11-26T08:48:48.928Z,1011.66
2017-11-26T08:49:14.451Z,1011.68
2017-11-26T08:49:39.980Z,1011.71
2017-11-26T08:50:05.511Z,1011.76
2017-11-26T08:50:30.980Z,1011.7
2017-11-26T08:50:56.494Z,1011.68
2017-11-26T08:51:21.980Z,1011.67
2017-11-26T08:51:47.465Z,1011.71
2017-11-26T08:52:12.965Z,1011.75
2017-11-26T08:52:38.436Z,1011.75
2017-11-26T08:53:03.887Z,1011.69
2017-11-26T08:53:29.460Z,1011.77
2017-11-26T08:53:54.953Z,1011.74
2017-11-26T08:54:20.437Z,1011.72
2017-11-26T08:54:45.969Z,1011.71
2017-11-26T08:55:11.377Z,1011.76
2017-11-26T08:55:36.859Z,1011.76
2017-11-26T08:56:02.320Z,1011.79
2017-11-26T08:56:27.829Z,1011.78
2017-11-26T08:56:53.467Z,1011.74
2017-11-26T08:57:18.982Z,1011.73
2017-11-26T08:57:44.445Z,1011.73
2017-11-26T08:58:09.939Z,1011.72
2017-11-26T08:58:35.433Z,1011.79
2017-11-26T08:59:00.897Z,1011.82
2017-11-26T08:59:26.375Z,1011.73
2017-11-26T08:59:51.887Z,1011.75
2017-11-26T09:00:17.369Z,1011.7
2017-11-26T09:00:42.904Z,1011.79
2017-11-26T09:01:08.449Z,1011.71
2017-11-26T09:01:33.898Z,1011.74
2017-11-26T09:01:59.361Z,1011.72
2017-11-26T09:02:24.874Z,1011.74
2017-11-26T09:02:50.418Z,1011.73
2017-11-26T09:03:15.879Z,1011.73
2017-11-26T09:03:41.304Z,1011.75
2017-11-26T09:04:06.797Z,1011.76
2017-11-26T09:04:32.308Z,1011.81
2017-11-26T09:04:57.763Z,1011.83
2017-11-26T09:05:23.261Z,1011.89
2017-11-26T09:05:48.779Z,1011.83
2017-11-26T09:06:14.260Z,1011.86
2017-11-26T09:06:39.805Z,1011.84
2017-11-26T09:07:05.249Z,1011.85
2017-11-26T09:07:30.712Z,1011.87
2017-11-26T09:07:56.187Z,1011.92
2017-11-26T09:08:21.670Z,1011.87
2017-11-26T09:08:47.157Z,1011.92
2017-11-26T09:09:12.633Z,1011.97
2017-11-26T09:09:38.104Z,1011.95
2017-11-26T09:10:03.576Z,1011.9
2017-11-26T09:10:29.076Z,1011.93
2017-11-26T09:11:32.769Z,1011.91
2017-11-26T09:11:58.228Z,1011.91
2017-11-26T09:12:23.753Z,1011.97
2017-11-26T09:12:49.203Z,1011.95
2017-11-26T09:13:14.669Z,1011.92
2017-11-26T09:13:40.118Z,1011.91
2017-11-26T09:14:05.601Z,1011.98
2017-11-26T09:14:31.121Z,1011.95
2017-11-26T09:14:56.624Z,1011.97
2017-11-26T09:15:22.090Z,1011.94
2017-11-26T09:15:47.577Z,1011.93
2017-11-26T09:16:13.067Z,1011.9
2017-11-26T09:16:38.551Z,1011.94
2017-11-26T09:17:04.017Z,1011.95
2017-11-26T09:17:29.528Z,1011.96
2017-11-26T09:17:55.014Z,1011.92
2017-11-26T09:18:20.499Z,1011.96
2017-11-26T09:18:45.954Z,1011.94
2017-11-26T09:19:11.420Z,1011.85
2017-11-26T09:19:36.913Z,1011.94
2017-11-26T09:20:02.430Z,1011.95
2017-11-26T09:20:27.926Z,1012
2017-11-26T09:20:53.423Z,1011.94
2017-11-26T09:21:18.927Z,1012
2017-11-26T09:21:44.406Z,1011.94
2017-11-26T09:22:09.912Z,1011.93
2017-11-26T09:22:35.379Z,1011.9
2017-11-26T09:23:00.811Z,1011.98
2017-11-26T09:23:26.320Z,1011.94
2017-11-26T09:23:51.795Z,1011.96
2017-11-26T09:24:17.242Z,1011.97
2017-11-26T09:24:42.755Z,1011.91
2017-11-26T09:25:08.256Z,1012.01
2017-11-26T09:25:33.733Z,1011.92
2017-11-26T09:25:59.238Z,1011.95
2017-11-26T09:26:24.714Z,1011.98
2017-11-26T09:26:50.169Z,1011.96
2017-11-26T09:27:53.812Z,1011.95
2017-11-26T09:28:19.275Z,1011.95
2017-11-26T09:28:44.803Z,1011.9
2017-11-26T09:29:10.258Z,1011.93
2017-11-26T09:29:35.772Z,1011.89
2017-11-26T09:30:01.226Z,1011.95
2017-11-26T09:30:26.705Z,1011.96
2017-11-26T09:30:52.183Z,1011.99
2017-11-26T09:31:17.645Z,1011.97
2017-11-26T09:31:43.184Z,1011.93
2017-11-26T09:32:08.687Z,1011.93
2017-11-26T09:32:34.193Z,1011.96
2017-11-26T09:32:59.641Z,1011.92
2017-11-26T09:33:25.143Z,1011.97
2017-11-26T09:33:50.577Z,1012
2017-11-26T09:34:16.062Z,1012.01
2017-11-26T09:34:41.596Z,1012.02
2017-11-26T09:35:07.089Z,1011.96
2017-11-26T09:35:32.556Z,1012.02
2017-11-26T09:35:58.080Z,1011.99
2017-11-26T09:36:23.526Z,1012.05
2017-11-26T09:36:49.093Z,1012.06
2017-11-26T09:37:14.540Z,1012.02
2017-11-26T09:37:40.036Z,1012.1
2017-11-26T09:38:05.483Z,1012.03
2017-11-26T09:38:31.000Z,1012.03
2017-11-26T09:38:56.510Z,1012.07
2017-11-26T09:39:21.999Z,1012.03
2017-11-26T09:39:47.513Z,1012.03
2017-11-26T09:40:12.951Z,1012.06
2017-11-26T09:40:38.404Z,1012.05
2017-11-26T09:41:03.941Z,1012.03
2017-11-26T09:41:29.425Z,1012.02
2017-11-26T09:41:54.887Z,1012.08
2017-11-26T09:42:20.454Z,1012.06
2017-11-26T09:42:45.932Z,1012.08
2017-11-26T09:43:11.391Z,1012.08
2017-11-26T09:43:36.888Z,1012.05
2017-11-26T09:44:02.353Z,1012.13
2017-11-26T09:44:27.836Z,1012.09
2017-11-26T09:44:53.363Z,1012.11
2017-11-26T09:45:18.821Z,1012.08
2017-11-26T09:45:44.316Z,1012.1
2017-11-26T09:46:09.777Z,1012.05
2017-11-26T09:46:35.238Z,1012.08
2017-11-26T09:47:00.801Z,1012.12
2017-11-26T09:47:26.311Z,1012.1
2017-11-26T09:47:51.817Z,1012.13
2017-11-26T09:48:17.281Z,1012.13
2017-11-26T09:48:42.737Z,1012.08
2017-11-26T09:49:08.213Z,1012.16
2017-11-26T09:49:33.711Z,1012.13
2017-11-26T09:49:59.233Z,1012.16
2017-11-26T09:50:24.749Z,1012.09
2017-11-26T09:50:50.193Z,1012.12
2017-11-26T09:51:15.670Z,1012.14
2017-11-26T09:51:41.097Z,1012.13
2017-11-26T09:52:06.581Z,1012.14
2017-11-26T09:52:32.036Z,1012.12
2017-11-26T09:52:57.570Z,1012.13
2017-11-26T09:53:23.036Z,1012.07
2017-11-26T09:53:48.561Z,1012.09
2017-11-26T09:54:14.019Z,1012.11
2017-11-26T09:54:39.486Z,1012.11
2017-11-26T09:55:04.963Z,1012.14
2017-11-26T09:55:30.415Z,1012.14
2017-11-26T09:55:55.935Z,1012.15
2017-11-26T09:56:21.428Z,1012.14
2017-11-26T09:56:46.895Z,1012.16
2017-11-26T09:57:12.408Z,1012.17
2017-11-26T09:57:37.940Z,1012.04
2017-11-26T09:58:03.412Z,1012.08
2017-11-26T09:58:28.893Z,1012.1
2017-11-26T09:58:54.392Z,1012.11
2017-11-26T09:59:19.932Z,1012.12
2017-11-26T09:59:45.437Z,1012.12
2017-11-26T10:00:10.932Z,1012.16
2017-11-26T10:00:36.470Z,1012.14
2017-11-26T10:01:01.915Z,1012.14
2017-11-26T10:01:27.387Z,1012.14
2017-11-26T10:01:52.869Z,1012.09
2017-11-26T10:02:18.341Z,1012.08
2017-11-26T10:02:43.822Z,1012.15
2017-11-26T10:03:09.311Z,1012.1
2017-11-26T10:03:34.801Z,1012.12
2017-11-26T10:04:00.256Z,1012.14
2017-11-26T10:04:25.718Z,1012.13
2017-11-26T10:04:51.193Z,1012.11
2017-11-26T10:05:16.689Z,1012.16
2017-11-26T10:05:42.191Z,1012.15
2017-11-26T10:06:07.690Z,1012.09
2017-11-26T10:06:33.182Z,1012.05
2017-11-26T10:06:58.698Z,1012.1
2017-11-26T10:07:24.181Z,1012.14
2017-11-26T10:07:49.689Z,1012.16
2017-11-26T10:08:15.151Z,1012.16
2017-11-26T10:08:40.649Z,1012.18
2017-11-26T10:09:06.090Z,1012.12
2017-11-26T10:09:31.578Z,1012.13
2017-11-26T10:09:57.024Z,1012.14
2017-11-26T10:10:55.573Z,1012.18
2017-11-26T10:11:21.263Z,1012.15
2017-11-26T10:11:46.726Z,1012.15